Weather observations for the past three days for
Viroqua Municipal Airport
Imperial (Metric)
Date Time (cdt) Wind (mph) Vis. (mi.) Weather Sky Cond. Temperature (ºF) Relative Humidity Wind Chill (°F) Heat Index (°F) Pressure Precipitation (in)
Air Dwpt 6 hour altimeter (in) sea level (mb) 1 hr 3 hr 6 hr
Max. Min.
04 23:15 NW 15 G 25 10.00 Fair CLR 49.5 27 42% 44 29.66 0.0
04 22:55 NW 18 G 25 10.00 Fair CLR 50 27.5 42% 44 29.65 0.0
04 22:35 NW 18 G 29 10.00 Fair CLR 50.9 28.6 42% 29.64 0.0
04 22:15 NW 22 G 26 10.00 Fair and Breezy CLR 51.8 28.9 41% 29.63 0.0
04 21:55 NW 15 G 26 10.00 Fair CLR 52.5 28.9 40% 29.62 0.0
04 21:35 NW 18 G 25 10.00 Fair CLR 53.6 28.9 39% 29.6 0.0
04 21:15 NW 20 G 28 10.00 Fair CLR 54.5 28.8 37% 29.59 0.0
04 20:55 NW 20 G 28 10.00 Fair CLR 55.2 29.5 37% 29.57 0.0
04 20:35 NW 17 G 22 10.00 Fair CLR 55.4 28.9 36% 29.56 0.0
04 20:15 NW 18 G 24 10.00 Fair CLR 55.9 28.8 35% 29.55 0.0
04 20:00 NW 21 G 26 10.00 Fair and Breezy CLR 56.7 27.7 33% 29.56 0.0
04 19:35 W 14 G 23 10.00 Fair CLR 58.1 27.1 31% 29.56 0.0
04 19:15 NW 17 10.00 Fair CLR 59 26.4 29% 29.55 0.0
04 18:55 W 15 G 24 10.00 Fair CLR 59.9 25.2 74.7 59.9 26% 29.54 0.0
04 18:35 W 15 G 22 10.00 Fair CLR 61.2 26.2 26% 29.54 0.0
04 18:15 W 14 10.00 Fair CLR 61.7 27 27% 29.53 0.0
04 17:55 W 16 10.00 Fair CLR 62.2 27.7 27% 29.53 0.0
04 17:35 W 17 G 22 10.00 Partly Cloudy SCT110 62.6 28.2 27% 29.52 0.0
04 17:15 W 14 G 23 10.00 Fair CLR 63 28.6 27% 29.52 0.0
04 16:55 W 16 G 25 10.00 Fair CLR 64.9 28.8 26% 29.51 0.0
04 16:35 W 13 G 26 10.00 Fair CLR 67.1 30.6 26% 29.5 0.0
04 16:15 NW 22 G 28 10.00 Fair and Breezy CLR 68.2 30.6 25% 29.49 0.0
04 15:55 W 17 G 25 10.00 Fair CLR 69.8 34.7 28% 29.48 0.0
04 15:35 NW 14 G 23 10.00 Fair CLR 69.8 35.6 29% 29.49 0.0
04 15:15 NW 20 G 28 10.00 Fair CLR 70.7 36.3 28% 29.48 0.0
04 15:00 NW 16 G 23 10.00 Fair CLR 71.2 37.9 30% 29.47 0.0
04 14:35 W 15 G 28 10.00 Fair CLR 72.5 37.6 28% 29.47 0.0
04 14:15 W 20 G 25 10.00 Partly Cloudy SCT095 73.4 39 29% 29.46 0.0
04 13:55 W 16 G 25 10.00 Partly Cloudy SCT095 73 39.9 30% 29.46 0.0
04 13:35 W 17 G 25 10.00 Fair CLR 73.8 39.9 30% 29.46 0.0
04 13:15 W 22 G 31 10.00 Fair and Breezy CLR 74.3 37.6 26% 29.45 0.0
04 12:55 W 20 G 32 10.00 Fair CLR 74.5 37.4 74.5 51.1 26% 29.45 0.0
04 12:35 W 26 G 36 10.00 Partly Cloudy and Windy SCT100 74.5 37.4 26% 29.45 0.0
04 12:15 W 25 G 32 10.00 Fair and Breezy CLR 74.5 36.9 26% 29.45 0.0
04 11:55 W 22 G 37 10.00 Partly Cloudy and Breezy SCT100 72.7 36.3 27% 29.46 0.0
04 11:35 SW 26 G 37 10.00 Partly Cloudy and Windy SCT095 72.3 36.5 27% 29.46 0.0
04 11:15 W 21 G 32 10.00 Partly Cloudy and Breezy SCT095 72.3 36.9 27% 29.48 0.0
04 10:55 W 21 G 28 10.00 Fair and Breezy CLR 71.4 36.3 28% 29.48 0.0
04 10:35 SW 21 G 31 10.00 Fair and Breezy CLR 70.7 36 28% 29.47 0.0
04 10:15 SW 20 G 29 10.00 Fair CLR 69.1 36.3 30% 29.48 0.0
04 09:55 SW 15 10.00 Fair CLR 67.5 36.9 33% 29.48 0.0
04 09:35 SW 16 G 24 10.00 Fair CLR 65.7 36.5 34% 29.48 0.0
04 09:15 SW 14 G 23 10.00 Fair CLR 63.5 36 36% 29.49 0.0
04 08:55 SW 17 G 23 10.00 Fair CLR 61.9 35.8 38% 29.5 0.0
04 08:35 SW 14 10.00 Fair CLR 60.3 35.4 40% 29.51 0.0
04 08:15 SW 15 G 21 10.00 Fair CLR 58.3 34.9 42% 29.51 0.0
04 07:55 SW 13 10.00 Fair CLR 56.5 35.8 46% 29.52 0.0
04 07:35 S 15 10.00 Fair CLR 54.1 35.6 50% 29.52 0.0
04 07:15 SW 13 10.00 Fair CLR 52 35.1 53% 29.52 0.0
04 06:55 S 12 10.00 Fair CLR 50.9 34.7 54.5 49.3 54% 29.52 0.0
04 06:35 S 10 10.00 Fair CLR 49.5 34.3 56% 46 29.53 0.0
04 06:15 S 10 10.00 Fair CLR 49.5 34 55% 46 29.53 0.0
04 05:55 S 12 10.00 Fair CLR 49.6 33.8 55% 46 29.53 0.0
04 05:35 S 12 10.00 Fair CLR 50 33.3 53% 46 29.54 0.0
04 05:15 S 10 10.00 Fair CLR 50.7 33.1 51% 29.55 0.0
04 04:55 S 10 10.00 Fair CLR 50.7 33.1 51% 29.56 0.0
04 04:35 S 10 10.00 Fair CLR 50.5 33.3 52% 29.57 0.0
04 04:15 SW 9 10.00 Fair CLR 50.5 33.3 52% 29.57 0.0
04 03:55 SW 9 10.00 Fair CLR 50.4 33.4 52% 29.58 0.0
04 03:35 SW 8 10.00 Fair CLR 50.9 34.2 53% 29.58 0.0
04 03:15 SW 9 10.00 Fair CLR 51.1 34 52% 29.59 0.0
04 02:55 SW 7 10.00 Fair CLR 51.3 32.9 50% 29.59 0.0
04 02:35 SW 5 10.00 Fair CLR 51.4 32.2 48% 29.61 0.0
04 02:15 S 3 10.00 Fair CLR 51.4 32.4 48% 29.61 0.0
04 01:55 S 5 10.00 Fair CLR 52.9 32 45% 29.62 0.0
04 01:35 S 3 10.00 Fair CLR 52.7 32 45% 29.63 0.0
04 01:15 S 5 10.00 Fair CLR 53.8 31.6 43% 29.64 0.0
04 00:55 S 3 10.00 Fair CLR 54.5 31.5 67.6 53.2 42% 29.65 0.0
04 00:35 SW 5 10.00 Fair CLR 53.6 32 44% 29.66 0.0
04 00:20 SW 6 10.00 Fair CLR 53.8 32.2 44% 29.66 0.0
03 23:55 SW 6 10.00 Fair CLR 55.4 32 41% 29.67 0.0
03 23:35 SW 7 10.00 Fair CLR 56.3 31.8 40% 29.67 0.0
03 23:15 SW 7 10.00 Fair CLR 57 31.5 38% 29.67 0.0
03 22:55 SW 7 10.00 Fair CLR 57.7 31.8 38% 29.68 0.0
03 22:35 W 7 10.00 Fair CLR 59 32 36% 29.69 0.0
03 22:15 W 5 10.00 Fair CLR 59.5 32 35% 29.69 0.0
03 21:55 W 3 10.00 Fair CLR 60.1 32 35% 29.69 0.0
03 21:35 W 5 10.00 Fair CLR 60.3 32.4 35% 29.69 0.0
03 21:15 W 6 10.00 Fair CLR 60.1 33.1 36% 29.68 0.0
03 20:55 W 7 10.00 Fair CLR 60.3 34.2 38% 29.68 0.0
03 20:35 W 5 10.00 Fair CLR 61.5 33.3 35% 29.68 0.0
03 20:15 W 3 10.00 Fair CLR 62.4 32.2 32% 29.67 0.0
03 19:55 W 6 10.00 Fair CLR 63.1 32.9 32% 29.67 0.0
03 19:40 NW 8 10.00 Fair CLR 65.3 31.5 28% 29.67 0.0
03 19:15 NW 12 10.00 Fair CLR 67.1 31.3 26% 29.67 0.0
03 18:55 W 10 10.00 Fair CLR 68 32.7 70.9 64.6 27% 29.67 0.0
03 18:35 W 13 10.00 Fair CLR 68.5 32.4 26% 29.66 0.0
03 18:15 W 9 10.00 Fair CLR 69.1 32.7 26% 29.66 0.0
03 17:55 NW 13 G 18 10.00 Fair CLR 69.1 32.2 26% 29.66 0.0
03 17:35 NW 9 G 17 10.00 Fair CLR 69.3 32.5 26% 29.66 0.0
03 17:15 W 10 G 18 10.00 Fair CLR 70.3 34.5 27% 29.66 0.0
03 16:55 W 12 10.00 Partly Cloudy SCT080 70.5 34.2 26% 29.66 0.0
03 16:35 NW 14 G 17 10.00 Fair CLR 70.7 34.7 27% 29.66 0.0
03 16:15 W 15 G 20 10.00 Fair CLR 70.3 34 26% 29.66 0.0
03 15:55 W 9 G 16 10.00 Fair CLR 70.3 35.4 28% 29.66 0.0
03 15:35 NW 14 G 23 10.00 Fair CLR 70.3 35.4 28% 29.67 0.0
03 15:15 W 8 G 17 10.00 Fair CLR 68.9 36.3 30% 29.67 0.0
03 14:55 W 9 10.00 Fair CLR 68.4 37.6 32% 29.68 0.0
03 14:35 W 5 G 17 10.00 Fair CLR 67.6 36.7 32% 29.68 0.0
03 14:15 W 8 G 17 10.00 Fair CLR 67.3 36.9 33% 29.69 0.0
03 13:55 W 12 G 16 10.00 Fair CLR 66 36.7 34% 29.69 0.0
03 13:35 SW 12 G 16 10.00 Fair CLR 65.5 36.5 34% 29.7 0.0
03 13:15 SW 12 10.00 Fair CLR 65.3 37.2 36% 29.71 0.0
03 12:55 W 7 10.00 Fair CLR 63.9 36 63.9 51.1 36% 29.71 0.0
03 12:35 SW 12 G 20 10.00 Fair CLR 63.5 36.5 37% 29.71 0.0
03 12:15 SW 12 G 20 10.00 Fair CLR 63 36.5 38% 29.72 0.0
03 11:55 SW 14 G 21 10.00 Fair CLR 61.7 35.6 38% 29.73 0.0
03 11:35 SW 14 G 18 10.00 Fair CLR 60.8 35.1 38% 29.72 0.0
03 11:15 SW 16 G 20 10.00 Fair CLR 60.8 35.4 39% 29.73 0.0
03 10:55 SW 16 G 23 10.00 Fair CLR 59.9 34.9 39% 29.73 0.0
03 10:35 SW 17 G 23 10.00 Fair CLR 59.5 34.3 39% 29.74 0.0
03 10:15 SW 17 G 23 10.00 Fair CLR 58.6 33.1 38% 29.74 0.0
03 09:55 SW 22 G 26 10.00 Fair and Breezy CLR 58.8 33.8 39% 29.74 0.0
03 09:35 SW 17 G 28 10.00 Fair CLR 57.7 34.5 42% 29.74 0.0
03 09:15 SW 17 G 25 10.00 Fair CLR 56.8 36.7 47% 29.75 0.0
03 08:55 S 16 G 23 10.00 Partly Cloudy SCT090 55.4 37.6 51% 29.75 0.0
03 08:35 S 13 G 21 10.00 Fair CLR 54.5 37.6 53% 29.76 0.0
03 08:15 S 20 G 25 10.00 Fair CLR 53.4 36.7 53% 29.76 0.0
03 07:55 S 16 G 22 10.00 Partly Cloudy SCT100 SCT120 52.2 37.8 58% 29.76 0.0
03 07:35 S 18 G 22 10.00 Partly Cloudy SCT120 52.5 37.6 57% 29.76 0.0
03 07:15 S 17 G 23 10.00 Partly Cloudy SCT080 SCT120 52.2 36.5 55% 29.76 0.0
03 06:55 S 14 G 21 10.00 Mostly Cloudy BKN080 50.9 36.5 51.1 48.6 58% 29.77 0.0
03 06:35 S 13 G 21 10.00 Mostly Cloudy BKN065 BKN090 BKN120 50.7 35.8 57% 29.78 0.0
03 06:15 SW 12 10.00 Partly Cloudy SCT065 SCT075 SCT090 49.6 35.8 59% 46 29.8 0.0
03 05:55 SW 13 10.00 Partly Cloudy SCT090 49.1 35.4 59% 45 29.8 0.0
03 05:35 S 13 10.00 Overcast BKN065 OVC100 49.8 35.4 58% 45 29.8 0.0
03 05:15 S 12 10.00 Mostly Cloudy SCT050 BKN065 BKN075 49.1 35.2 59% 45 29.81 0.0
03 04:55 SW 10 10.00 Mostly Cloudy SCT055 BKN085 48.6 34.9 59% 45 29.82 0.0
03 04:35 SW 14 10.00 Overcast SCT048 BKN055 OVC070 49.1 34.3 57% 44 29.83 0.0
03 04:15 SW 12 10.00 Overcast SCT060 SCT070 OVC100 50.5 30.9 47% 29.83 0.0
03 03:55 SW 12 10.00 Mostly Cloudy BKN090 50.4 30.4 46% 29.83 0.0
03 03:35 SW 15 G 21 10.00 Overcast OVC090 50.5 29.8 45% 29.83 0.0
03 03:15 SW 12 G 17 10.00 Overcast BKN090 OVC120 50.2 29.5 45% 29.84 0.0
03 02:55 SW 13 10.00 Overcast BKN090 OVC110 50.5 29.5 44% 29.84 0.0
03 02:35 SW 12 10.00 Overcast OVC090 50.5 29.3 44% 29.84 0.0
03 02:15 SW 10 10.00 Overcast OVC100 50.4 29.1 44% 29.85 0.0
03 01:55 SW 10 10.00 Overcast OVC110 50 29.1 45% 46 29.86 0.0
03 01:35 SW 13 10.00 Overcast OVC110 50.4 28.6 43% 29.86 0.0
03 01:15 SW 13 10.00 Partly Cloudy SCT120 49.8 28.4 44% 45 29.86 0.0
03 00:55 SW 10 10.00 Fair CLR 49.1 28.4 57.2 48.7 45% 45 29.87 0.0
03 00:35 SW 10 10.00 Fair CLR 49.1 28.4 45% 45 29.87 0.0
03 00:15 SW 12 10.00 Fair CLR 49.3 28.2 44% 45 29.87 0.0
02 23:55 SW 12 10.00 Fair CLR 48.7 28.8 46% 44 29.88 0.0
02 23:40 SW 10 10.00 Partly Cloudy SCT110 49.3 28.6 45% 45 29.88 0.0
02 23:15 SW 10 10.00 Mostly Cloudy BKN110 50 28.4 43% 46 29.89 0.0
02 22:55 SW 9 10.00 Partly Cloudy SCT120 50.2 28.6 43% 29.89 0.0
02 22:35 SW 9 10.00 Fair CLR 49.5 29.1 46% 46 29.9 0.0
02 22:15 SW 9 10.00 Fair CLR 49.6 28.9 45% 46 29.91 0.0
02 21:55 SW 8 10.00 Fair CLR 50.2 29.1 44% 29.91 0.0
02 21:35 SW 8 10.00 Fair CLR 50.9 28.6 42% 29.91 0.0
02 21:15 SW 8 10.00 Fair CLR 51.6 28.4 41% 29.91 0.0
02 20:55 SW 7 10.00 Partly Cloudy SCT100 52 27.9 39% 29.91 0.0
02 20:35 SW 6 10.00 Partly Cloudy SCT100 52.2 27.7 39% 29.92 0.0
02 20:20 SW 5 10.00 Fair CLR 52 28.8 41% 29.92 0.0
02 19:55 SW 7 10.00 Partly Cloudy SCT110 54.3 27.5 36% 29.92 0.0
02 19:35 SW 7 10.00 Fair CLR 55.4 27.5 34% 29.92 0.0
02 19:15 W 8 10.00 Fair CLR 56.5 26.2 31% 29.93 0.0
02 18:55 W 12 10.00 Fair CLR 57.2 25.7 59.9 53.8 30% 29.93 0.0
02 18:35 W 12 G 17 10.00 Fair CLR 57.9 24.1 27% 29.93 0.0
02 18:15 W 9 G 18 10.00 Fair CLR 59 24.3 26% 29.94 0.0
02 17:55 W 9 10.00 Partly Cloudy SCT080 58.8 25 27% 29.94 0.0
02 17:35 W 15 10.00 Fair CLR 59.2 23.9 26% 29.95 0.0
02 17:15 W 10 10.00 Fair CLR 59 23.7 26% 29.95 0.0
02 16:55 W 13 G 21 10.00 Fair CLR 59.2 23 25% 29.96 0.0
02 16:35 W 13 G 23 10.00 Partly Cloudy SCT080 59.5 24.3 26% 29.96 0.0
02 16:15 SW 16 G 21 10.00 Partly Cloudy SCT080 59.2 23 25% 29.97 0.0
02 15:55 W 15 G 18 10.00 Partly Cloudy SCT080 58.8 24.6 27% 29.98 0.0
02 15:35 W 15 G 20 10.00 Partly Cloudy SCT080 58.8 23.2 25% 29.98 0.0
02 15:15 W 10 G 28 10.00 Partly Cloudy SCT070 59 24.3 26% 30 0.0
02 14:55 W 14 G 24 10.00 Mostly Cloudy BKN070 58.8 23.7 26% 30 0.0
02 14:35 SW 14 G 26 10.00 Mostly Cloudy BKN070 BKN085 57.7 23.5 27% 30.01 0.0
02 14:15 NW 9 G 21 10.00 Mostly Cloudy BKN070 57.7 23.7 27% 30.02 0.0
02 13:55 W 10 10.00 Partly Cloudy SCT070 55.6 22.6 28% 30.02 0.0
02 13:35 NW 14 G 17 10.00 Partly Cloudy SCT070 55 23.7 30% 30.03 0.0
02 13:15 W 8 10.00 Mostly Cloudy BKN070 55.8 23.7 29% 30.04 0.0
02 12:55 W 13 G 17 10.00 Mostly Cloudy BKN070 54 25 56.3 37.4 33% 30.05 0.0
02 12:35 W 12 G 22 10.00 Mostly Cloudy BKN070 54.5 23.5 30% 30.05 0.0
02 12:15 W 10 G 16 10.00 Mostly Cloudy BKN070 54.5 23.7 30% 30.05 0.0
02 11:55 NW 12 10.00 Mostly Cloudy BKN070 53.8 23.2 30% 30.06 0.0
02 11:35 NW 12 G 20 10.00 Partly Cloudy SCT060 53.2 24.4 33% 30.07 0.0
02 11:15 W 8 G 17 10.00 Partly Cloudy SCT060 52.7 25.5 35% 30.07 0.0
02 10:55 SW 14 10.00 Fair CLR 51.6 26.1 37% 30.08 0.0
02 10:35 W 8 10.00 Fair CLR 51.1 25.7 37% 30.08 0.0
02 10:15 W 13 G 18 10.00 Fair CLR 50.5 26.1 39% 30.08 0.0
02 09:55 W 12 10.00 Fair CLR 49.5 25.7 40% 45 30.09 0.0
02 09:35 W 9 G 16 10.00 Fair CLR 48.6 25.7 41% 45 30.09 0.0
02 09:15 W 13 10.00 Fair CLR 47.1 25.2 42% 42 30.1 0.0
02 08:55 W 10 10.00 Fair CLR 45.7 26.6 47% 41 30.1 0.0
02 08:35 SW 9 10.00 Fair CLR 43.7 27.1 52% 39 30.1 0.0
02 08:15 SW 10 10.00 Fair CLR 41.5 27.1 57% 36 30.1 0.0
02 07:55 SW 7 10.00 Partly Cloudy SCT080 39.2 28.2 65% 35 30.1 0.0
02 07:35 W 7 10.00 Overcast OVC090 38.3 28.2 67% 34 30.1 0.0
02 07:15 SW 6 10.00 Overcast OVC090 38.1 28 67% 34 30.1 0.0
02 06:55 SW 6 10.00 Overcast OVC090 37 27.9 39.2 35.1 69% 33 30.1 0.0
02 06:35 SW 3 10.00 Overcast OVC090 36.1 27.7 71% 30.09 0.0
02 06:15 SW 5 10.00 Overcast OVC090 35.6 27.3 72% 32 30.09 0.0
02 05:55 SW 3 10.00 Overcast OVC090 35.6 26.6 70% 30.09 0.0
02 05:35 Calm 10.00 Overcast OVC090 36.5 25.5 64% 30.09 0.0
02 05:15 Calm 10.00 Mostly Cloudy BKN090 36.5 26.1 66% 30.09 0.0
02 04:55 SW 3 10.00 Overcast OVC090 36.5 26.6 67% 30.09 0.0
02 04:35 Calm 10.00 Overcast OVC090 36.5 25.9 65% 30.09 0.0
02 04:15 SW 5 10.00 Overcast OVC090 36.9 25.7 64% 34 30.08 0.0
02 03:55 Calm 10.00 Overcast OVC090 37.4 24.6 60% 30.08 0.0
02 03:35 Calm 10.00 Overcast OVC090 37.6 23.7 57% 30.08 0.0
02 03:15 Calm 10.00 Overcast OVC090 37.4 23.9 58% 30.08 0.0
02 02:55 Calm 10.00 Overcast OVC090 37.4 23.7 58% 30.08 0.0
02 02:35 SW 3 10.00 Mostly Cloudy BKN090 37.4 22.6 55% 30.09 0.0
02 02:15 SW 3 10.00 Partly Cloudy SCT090 37.6 22.5 54% 30.09 0.0
02 01:55 Calm 10.00 Fair CLR 37.2 22.5 55% 30.09 0.0
02 01:35 Calm 10.00 Fair CLR 37.8 22.6 54% 30.09 0.0
02 01:15 SW 3 10.00 Fair CLR 38.8 21.9 51% 30.09 0.0
02 00:55 Calm 10.00 Fair CLR 35.8 25.7 48.6 35.8 67% 30.09 0.0
02 00:35 S 3 10.00 Fair CLR 36.3 23.4 59% 30.09 0.0
02 00:15 Calm 10.00 Fair CLR 38.7 23.2 54% 30.09 0.0
01 23:55 Calm 10.00 Fair CLR 38.7 23 53% 30.09 0.0
01 23:35 Calm 10.00 Fair CLR 41.4 22.1 46% 30.09 0.0
Date Time (cdt) Wind (mph) Vis. (mi.) Weather Sky Cond. Air Dwpt Max. Min. Relative Humidity Wind Chill (°F) Heat Index (°F) altimeter (in) sea level (mb) 1 hr 3 hr 6 hr
6 hour
Temperature (ºF) Pressure Precipitation (in)